Portada
METAR-TAF:

METAR-TAF

Aeroports :

Luang Namtha, Laos

latitud: 20-57-38N, longitud: 101-24-09E, altitud: 600 m

Observació

L'informe es va fer fa 1 hora i 46 minuts, a les 09:00 UTC
Vent 8 kt del Sud
Temperatura 33°C
Humitat 36%
Pressió 1007 hPa
Visibilitat: 6000 m
Núvols disperses a una alçada de 2000 ft

METAR: VLLN 190900Z 18008KT 6000 SCT020 33/16 Q1007 NOSIG

Hora: 16:16 (10:46 UTC)

Pronòstic

L'informe es va fer fa 5 hores i 46 minuts, a les 05:00 UTC
Pronòstic vàlid del 19 a les 06 UTC al 20 a les 06 UTC
Vent 4 kt del Nord-Est
Visibilitat: 5000 m
Escasses núvols a una alçada de 2000 ft
fum
Temporalment
l' 19 a les 12 UTC al 19 a les 16 UTC
Visibilitat: 3000 m
Núvols disperses a una alçada de 2000 ft
Núvols disperses a una alçada de 10000 ft
boirina

TAF: VLLN 190500Z 1906/2006 04004KT 5000 FU FEW020 TEMPO 1912/1916 3000 BR SCT020 SCT100

Observacions i pronòstics meteorològics de més de 4000 aeroports (METAR i TAF).

Les estacions disponibles són els punts grocs i vermells al mapa.

Posi el ratolí al punt desitjat per veure el nom de l'estació.

Feu clic per veure les observacions i els pronòstics meteorològics.

Per canviar el mapa: feu clic els botons verds amb una creu de color negre per apropar; al botó verd amb un guió per allunyar la imatge; o en les fletxes verdes per a mapes adjacents.


METAR-TAF: